sensor_id;sensor_type;location;lat;lon;timestamp;P1;durP1;ratioP1;P2;durP2;ratioP2
64887;SDS011;51386;53.082;8.816;2023-10-31T00:02:21;9.70;;;8.70;;
64887;SDS011;51386;53.082;8.816;2023-10-31T00:04:50;12.17;;;9.83;;
64887;SDS011;51386;53.082;8.816;2023-10-31T00:07:18;8.47;;;7.73;;
64887;SDS011;51386;53.082;8.816;2023-10-31T00:09:46;7.17;;;6.57;;
64887;SDS011;51386;53.082;8.816;2023-10-31T00:12:15;8.83;;;7.50;;
64887;SDS011;51386;53.082;8.816;2023-10-31T00:14:43;10.27;;;8.53;;
64887;SDS011;51386;53.082;8.816;2023-10-31T00:17:12;8.57;;;7.77;;
64887;SDS011;51386;53.082;8.816;2023-10-31T00:19:40;9.13;;;8.10;;
64887;SDS011;51386;53.082;8.816;2023-10-31T00:22:08;7.63;;;6.97;;
64887;SDS011;51386;53.082;8.816;2023-10-31T00:24:37;10.23;;;9.33;;
64887;SDS011;51386;53.082;8.816;2023-10-31T00:27:05;12.27;;;10.50;;
64887;SDS011;51386;53.082;8.816;2023-10-31T00:29:34;10.40;;;9.40;;
64887;SDS011;51386;53.082;8.816;2023-10-31T00:32:02;14.90;;;12.03;;
64887;SDS011;51386;53.082;8.816;2023-10-31T00:34:32;8.70;;;7.90;;
64887;SDS011;51386;53.082;8.816;2023-10-31T00:37:01;10.73;;;9.47;;
64887;SDS011;51386;53.082;8.816;2023-10-31T00:39:29;10.30;;;9.30;;
64887;SDS011;51386;53.082;8.816;2023-10-31T00:41:57;10.50;;;9.40;;
64887;SDS011;51386;53.082;8.816;2023-10-31T00:44:26;10.10;;;8.67;;
64887;SDS011;51386;53.082;8.816;2023-10-31T00:46:54;9.87;;;8.97;;
64887;SDS011;51386;53.082;8.816;2023-10-31T00:49:23;7.67;;;6.97;;
64887;SDS011;51386;53.082;8.816;2023-10-31T00:51:51;9.77;;;8.87;;
64887;SDS011;51386;53.082;8.816;2023-10-31T00:54:19;9.80;;;8.93;;
64887;SDS011;51386;53.082;8.816;2023-10-31T00:56:48;9.13;;;8.33;;
64887;SDS011;51386;53.082;8.816;2023-10-31T00:59:16;8.57;;;7.77;;
64887;SDS011;51386;53.082;8.816;2023-10-31T01:01:44;9.60;;;8.67;;
64887;SDS011;51386;53.082;8.816;2023-10-31T01:04:13;8.23;;;7.40;;
64887;SDS011;51386;53.082;8.816;2023-10-31T01:06:41;9.30;;;8.37;;
64887;SDS011;51386;53.082;8.816;2023-10-31T01:09:11;8.90;;;7.63;;
64887;SDS011;51386;53.082;8.816;2023-10-31T01:11:40;8.33;;;7.63;;
64887;SDS011;51386;53.082;8.816;2023-10-31T01:14:09;8.07;;;7.27;;
64887;SDS011;51386;53.082;8.816;2023-10-31T01:16:37;10.27;;;8.67;;
64887;SDS011;51386;53.082;8.816;2023-10-31T01:19:07;10.27;;;9.27;;
64887;SDS011;51386;53.082;8.816;2023-10-31T01:21:35;10.60;;;9.57;;
64887;SDS011;51386;53.082;8.816;2023-10-31T01:24:04;10.10;;;9.13;;
64887;SDS011;51386;53.082;8.816;2023-10-31T01:26:33;8.43;;;7.73;;
64887;SDS011;51386;53.082;8.816;2023-10-31T01:29:03;9.47;;;8.47;;
64887;SDS011;51386;53.082;8.816;2023-10-31T01:31:31;10.07;;;9.17;;
64887;SDS011;51386;53.082;8.816;2023-10-31T01:34:10;8.50;;;7.63;;
64887;SDS011;51386;53.082;8.816;2023-10-31T01:36:39;8.83;;;8.03;;
64887;SDS011;51386;53.082;8.816;2023-10-31T01:39:07;8.27;;;7.47;;
64887;SDS011;51386;53.082;8.816;2023-10-31T01:41:36;8.93;;;8.13;;
64887;SDS011;51386;53.082;8.816;2023-10-31T01:44:04;7.67;;;6.90;;
64887;SDS011;51386;53.082;8.816;2023-10-31T01:46:33;9.67;;;8.53;;
64887;SDS011;51386;53.082;8.816;2023-10-31T01:49:02;7.90;;;7.20;;
64887;SDS011;51386;53.082;8.816;2023-10-31T01:51:31;8.33;;;7.53;;
64887;SDS011;51386;53.082;8.816;2023-10-31T01:53:59;9.73;;;8.70;;
64887;SDS011;51386;53.082;8.816;2023-10-31T01:56:28;9.80;;;8.80;;
64887;SDS011;51386;53.082;8.816;2023-10-31T01:58:56;9.27;;;8.33;;
64887;SDS011;51386;53.082;8.816;2023-10-31T02:01:25;9.47;;;8.57;;
64887;SDS011;51386;53.082;8.816;2023-10-31T02:03:53;10.23;;;9.23;;
64887;SDS011;51386;53.082;8.816;2023-10-31T02:06:22;8.47;;;7.67;;
64887;SDS011;51386;53.082;8.816;2023-10-31T02:08:50;9.70;;;8.80;;
64887;SDS011;51386;53.082;8.816;2023-10-31T02:11:18;10.13;;;8.93;;
64887;SDS011;51386;53.082;8.816;2023-10-31T02:13:47;9.30;;;8.27;;
64887;SDS011;51386;53.082;8.816;2023-10-31T02:16:15;9.53;;;8.57;;
64887;SDS011;51386;53.082;8.816;2023-10-31T02:18:44;10.17;;;9.17;;
64887;SDS011;51386;53.082;8.816;2023-10-31T02:21:12;9.33;;;8.43;;
64887;SDS011;51386;53.082;8.816;2023-10-31T02:23:41;10.43;;;9.43;;
64887;SDS011;51386;53.082;8.816;2023-10-31T02:26:09;10.13;;;9.13;;
64887;SDS011;51386;53.082;8.816;2023-10-31T02:28:37;10.67;;;9.43;;
64887;SDS011;51386;53.082;8.816;2023-10-31T02:31:06;10.93;;;9.80;;
64887;SDS011;51386;53.082;8.816;2023-10-31T02:33:49;11.60;;;10.40;;
64887;SDS011;51386;53.082;8.816;2023-10-31T02:36:17;11.20;;;10.00;;
64887;SDS011;51386;53.082;8.816;2023-10-31T02:38:46;11.47;;;10.37;;
64887;SDS011;51386;53.082;8.816;2023-10-31T02:41:15;11.50;;;10.27;;
64887;SDS011;51386;53.082;8.816;2023-10-31T02:43:44;11.43;;;10.33;;
64887;SDS011;51386;53.082;8.816;2023-10-31T02:46:13;12.43;;;11.03;;
64887;SDS011;51386;53.082;8.816;2023-10-31T02:48:43;11.63;;;10.53;;
64887;SDS011;51386;53.082;8.816;2023-10-31T02:51:11;12.23;;;11.10;;
64887;SDS011;51386;53.082;8.816;2023-10-31T02:53:39;12.17;;;11.00;;
64887;SDS011;51386;53.082;8.816;2023-10-31T02:56:08;12.73;;;11.50;;
64887;SDS011;51386;53.082;8.816;2023-10-31T02:58:36;12.77;;;11.47;;
64887;SDS011;51386;53.082;8.816;2023-10-31T03:01:05;12.30;;;11.10;;
64887;SDS011;51386;53.082;8.816;2023-10-31T03:03:33;13.10;;;11.47;;
64887;SDS011;51386;53.082;8.816;2023-10-31T03:06:02;11.63;;;10.53;;
64887;SDS011;51386;53.082;8.816;2023-10-31T03:08:33;13.00;;;11.57;;
64887;SDS011;51386;53.082;8.816;2023-10-31T03:11:01;13.10;;;11.67;;
64887;SDS011;51386;53.082;8.816;2023-10-31T03:13:30;13.37;;;11.50;;
64887;SDS011;51386;53.082;8.816;2023-10-31T03:15:58;14.37;;;12.33;;
64887;SDS011;51386;53.082;8.816;2023-10-31T03:18:26;13.80;;;11.90;;
64887;SDS011;51386;53.082;8.816;2023-10-31T03:20:55;13.67;;;12.27;;
64887;SDS011;51386;53.082;8.816;2023-10-31T03:23:23;13.73;;;12.33;;
64887;SDS011;51386;53.082;8.816;2023-10-31T03:25:51;13.43;;;12.03;;
64887;SDS011;51386;53.082;8.816;2023-10-31T03:28:20;18.17;;;14.27;;
64887;SDS011;51386;53.082;8.816;2023-10-31T03:30:51;15.67;;;12.93;;
64887;SDS011;51386;53.082;8.816;2023-10-31T03:33:20;14.90;;;13.40;;
64887;SDS011;51386;53.082;8.816;2023-10-31T03:35:48;14.00;;;12.60;;
64887;SDS011;51386;53.082;8.816;2023-10-31T03:38:16;14.53;;;13.13;;
64887;SDS011;51386;53.082;8.816;2023-10-31T03:40:45;13.77;;;12.37;;
64887;SDS011;51386;53.082;8.816;2023-10-31T03:43:13;14.80;;;13.03;;
64887;SDS011;51386;53.082;8.816;2023-10-31T03:45:42;13.83;;;12.43;;
64887;SDS011;51386;53.082;8.816;2023-10-31T03:48:10;13.43;;;12.13;;
64887;SDS011;51386;53.082;8.816;2023-10-31T03:50:39;15.57;;;13.80;;
64887;SDS011;51386;53.082;8.816;2023-10-31T03:53:07;19.47;;;15.63;;
64887;SDS011;51386;53.082;8.816;2023-10-31T03:55:36;15.13;;;13.03;;
64887;SDS011;51386;53.082;8.816;2023-10-31T03:58:04;15.93;;;13.50;;
64887;SDS011;51386;53.082;8.816;2023-10-31T04:00:33;16.63;;;13.50;;
64887;SDS011;51386;53.082;8.816;2023-10-31T04:03:01;11.90;;;10.70;;
64887;SDS011;51386;53.082;8.816;2023-10-31T04:05:30;14.00;;;12.40;;
64887;SDS011;51386;53.082;8.816;2023-10-31T04:07:58;13.57;;;12.17;;
64887;SDS011;51386;53.082;8.816;2023-10-31T04:10:27;12.13;;;10.93;;
64887;SDS011;51386;53.082;8.816;2023-10-31T04:12:55;12.57;;;10.60;;
64887;SDS011;51386;53.082;8.816;2023-10-31T04:15:23;11.77;;;10.67;;
64887;SDS011;51386;53.082;8.816;2023-10-31T04:17:52;12.30;;;11.00;;
64887;SDS011;51386;53.082;8.816;2023-10-31T04:20:20;12.53;;;11.23;;
64887;SDS011;51386;53.082;8.816;2023-10-31T04:22:49;11.67;;;10.37;;
64887;SDS011;51386;53.082;8.816;2023-10-31T04:25:17;13.23;;;10.90;;
64887;SDS011;51386;53.082;8.816;2023-10-31T04:27:45;12.23;;;11.00;;
64887;SDS011;51386;53.082;8.816;2023-10-31T04:30:14;10.67;;;9.63;;
64887;SDS011;51386;53.082;8.816;2023-10-31T04:32:43;12.37;;;10.33;;
64887;SDS011;51386;53.082;8.816;2023-10-31T04:35:11;11.63;;;10.23;;
64887;SDS011;51386;53.082;8.816;2023-10-31T04:37:40;11.23;;;10.20;;
64887;SDS011;51386;53.082;8.816;2023-10-31T04:40:09;11.47;;;10.33;;
64887;SDS011;51386;53.082;8.816;2023-10-31T04:42:38;11.80;;;10.70;;
64887;SDS011;51386;53.082;8.816;2023-10-31T04:45:08;11.23;;;10.00;;
64887;SDS011;51386;53.082;8.816;2023-10-31T04:47:37;11.53;;;10.37;;
64887;SDS011;51386;53.082;8.816;2023-10-31T04:50:08;12.53;;;11.33;;
64887;SDS011;51386;53.082;8.816;2023-10-31T04:52:37;12.03;;;10.80;;
64887;SDS011;51386;53.082;8.816;2023-10-31T04:55:05;12.23;;;11.03;;
64887;SDS011;51386;53.082;8.816;2023-10-31T04:57:34;14.40;;;11.50;;
64887;SDS011;51386;53.082;8.816;2023-10-31T05:00:03;14.93;;;12.77;;
64887;SDS011;51386;53.082;8.816;2023-10-31T05:02:34;16.13;;;13.90;;
64887;SDS011;51386;53.082;8.816;2023-10-31T05:05:02;14.60;;;13.10;;
64887;SDS011;51386;53.082;8.816;2023-10-31T05:07:31;14.83;;;12.60;;
64887;SDS011;51386;53.082;8.816;2023-10-31T05:10:00;13.10;;;11.80;;
64887;SDS011;51386;53.082;8.816;2023-10-31T05:12:28;14.07;;;12.67;;
64887;SDS011;51386;53.082;8.816;2023-10-31T05:14:57;14.17;;;12.77;;
64887;SDS011;51386;53.082;8.816;2023-10-31T05:17:26;13.07;;;11.87;;
64887;SDS011;51386;53.082;8.816;2023-10-31T05:19:54;14.63;;;13.13;;
64887;SDS011;51386;53.082;8.816;2023-10-31T05:22:22;12.50;;;11.30;;
64887;SDS011;51386;53.082;8.816;2023-10-31T05:24:51;12.33;;;11.13;;
64887;SDS011;51386;53.082;8.816;2023-10-31T05:27:20;12.93;;;11.63;;
64887;SDS011;51386;53.082;8.816;2023-10-31T05:29:48;12.10;;;10.90;;
64887;SDS011;51386;53.082;8.816;2023-10-31T05:32:16;10.80;;;9.80;;
64887;SDS011;51386;53.082;8.816;2023-10-31T05:34:45;10.67;;;9.67;;
64887;SDS011;51386;53.082;8.816;2023-10-31T05:37:13;11.10;;;10.10;;
64887;SDS011;51386;53.082;8.816;2023-10-31T05:39:42;11.17;;;10.07;;
64887;SDS011;51386;53.082;8.816;2023-10-31T05:42:10;10.53;;;9.50;;
64887;SDS011;51386;53.082;8.816;2023-10-31T05:44:39;10.10;;;9.20;;
64887;SDS011;51386;53.082;8.816;2023-10-31T05:47:07;9.70;;;8.80;;
64887;SDS011;51386;53.082;8.816;2023-10-31T05:49:35;3.70;;;3.40;;
64887;SDS011;51386;53.082;8.816;2023-10-31T05:52:04;2.37;;;2.20;;
64887;SDS011;51386;53.082;8.816;2023-10-31T05:54:32;1.60;;;1.50;;
64887;SDS011;51386;53.082;8.816;2023-10-31T05:57:01;1.20;;;1.10;;
64887;SDS011;51386;53.082;8.816;2023-10-31T05:59:29;0.83;;;0.83;;
64887;SDS011;51386;53.082;8.816;2023-10-31T06:01:58;1.00;;;0.90;;
64887;SDS011;51386;53.082;8.816;2023-10-31T06:04:27;0.77;;;0.77;;
64887;SDS011;51386;53.082;8.816;2023-10-31T06:06:55;0.87;;;0.87;;
64887;SDS011;51386;53.082;8.816;2023-10-31T06:09:23;0.60;;;0.60;;
64887;SDS011;51386;53.082;8.816;2023-10-31T06:11:52;1.00;;;0.80;;
64887;SDS011;51386;53.082;8.816;2023-10-31T06:14:20;1.70;;;0.80;;
64887;SDS011;51386;53.082;8.816;2023-10-31T06:16:49;0.63;;;0.50;;
64887;SDS011;51386;53.082;8.816;2023-10-31T06:19:17;1.03;;;0.93;;
64887;SDS011;51386;53.082;8.816;2023-10-31T06:21:46;0.60;;;0.60;;
64887;SDS011;51386;53.082;8.816;2023-10-31T06:24:14;0.50;;;0.50;;
64887;SDS011;51386;53.082;8.816;2023-10-31T06:26:42;1.07;;;0.77;;
64887;SDS011;51386;53.082;8.816;2023-10-31T06:29:11;0.70;;;0.70;;
64887;SDS011;51386;53.082;8.816;2023-10-31T06:31:59;0.80;;;0.80;;
64887;SDS011;51386;53.082;8.816;2023-10-31T06:34:29;0.67;;;0.60;;
64887;SDS011;51386;53.082;8.816;2023-10-31T06:36:57;1.17;;;0.70;;
64887;SDS011;51386;53.082;8.816;2023-10-31T06:39:25;2.00;;;0.70;;
64887;SDS011;51386;53.082;8.816;2023-10-31T06:41:54;0.70;;;0.70;;
64887;SDS011;51386;53.082;8.816;2023-10-31T06:44:23;1.00;;;0.87;;
64887;SDS011;51386;53.082;8.816;2023-10-31T06:46:51;0.67;;;0.67;;
64887;SDS011;51386;53.082;8.816;2023-10-31T06:49:20;0.70;;;0.70;;
64887;SDS011;51386;53.082;8.816;2023-10-31T06:51:50;3.93;;;0.90;;
64887;SDS011;51386;53.082;8.816;2023-10-31T06:54:18;2.13;;;0.93;;
64887;SDS011;51386;53.082;8.816;2023-10-31T06:56:47;1.03;;;0.93;;
64887;SDS011;51386;53.082;8.816;2023-10-31T06:59:17;2.10;;;0.70;;
64887;SDS011;51386;53.082;8.816;2023-10-31T07:01:45;1.73;;;0.70;;
64887;SDS011;51386;53.082;8.816;2023-10-31T07:04:14;4.77;;;2.97;;
64887;SDS011;51386;53.082;8.816;2023-10-31T07:06:44;2.43;;;0.80;;
64887;SDS011;51386;53.082;8.816;2023-10-31T07:09:12;3.07;;;1.07;;
64887;SDS011;51386;53.082;8.816;2023-10-31T07:11:43;2.53;;;0.50;;
64887;SDS011;51386;53.082;8.816;2023-10-31T07:14:11;0.97;;;0.63;;
64887;SDS011;51386;53.082;8.816;2023-10-31T07:16:40;2.73;;;0.90;;
64887;SDS011;51386;53.082;8.816;2023-10-31T07:19:11;1.07;;;0.70;;
64887;SDS011;51386;53.082;8.816;2023-10-31T07:21:40;0.77;;;0.63;;
64887;SDS011;51386;53.082;8.816;2023-10-31T07:24:08;1.13;;;0.80;;
64887;SDS011;51386;53.082;8.816;2023-10-31T07:26:37;4.07;;;1.10;;
64887;SDS011;51386;53.082;8.816;2023-10-31T07:29:05;2.20;;;0.83;;
64887;SDS011;51386;53.082;8.816;2023-10-31T07:31:34;0.80;;;0.63;;
64887;SDS011;51386;53.082;8.816;2023-10-31T07:34:06;0.83;;;0.80;;
64887;SDS011;51386;53.082;8.816;2023-10-31T07:36:34;1.67;;;0.90;;
64887;SDS011;51386;53.082;8.816;2023-10-31T07:39:03;2.30;;;0.80;;
64887;SDS011;51386;53.082;8.816;2023-10-31T07:41:31;1.50;;;0.90;;
64887;SDS011;51386;53.082;8.816;2023-10-31T07:43:59;1.13;;;1.03;;
64887;SDS011;51386;53.082;8.816;2023-10-31T07:46:28;2.00;;;0.83;;
64887;SDS011;51386;53.082;8.816;2023-10-31T07:48:56;2.23;;;0.83;;
64887;SDS011;51386;53.082;8.816;2023-10-31T07:51:25;1.33;;;1.00;;
64887;SDS011;51386;53.082;8.816;2023-10-31T07:53:53;1.73;;;0.87;;
64887;SDS011;51386;53.082;8.816;2023-10-31T07:56:21;1.53;;;0.93;;
64887;SDS011;51386;53.082;8.816;2023-10-31T07:58:50;1.50;;;0.73;;
64887;SDS011;51386;53.082;8.816;2023-10-31T08:01:19;0.70;;;0.70;;
64887;SDS011;51386;53.082;8.816;2023-10-31T08:03:49;0.63;;;0.60;;
64887;SDS011;51386;53.082;8.816;2023-10-31T08:06:17;2.03;;;0.80;;
64887;SDS011;51386;53.082;8.816;2023-10-31T08:08:46;1.53;;;0.70;;
64887;SDS011;51386;53.082;8.816;2023-10-31T08:11:14;3.23;;;0.80;;
64887;SDS011;51386;53.082;8.816;2023-10-31T08:13:42;0.60;;;0.57;;
64887;SDS011;51386;53.082;8.816;2023-10-31T08:16:11;0.70;;;0.70;;
64887;SDS011;51386;53.082;8.816;2023-10-31T08:18:47;0.57;;;0.50;;
64887;SDS011;51386;53.082;8.816;2023-10-31T08:21:16;0.53;;;0.53;;
64887;SDS011;51386;53.082;8.816;2023-10-31T08:23:45;0.87;;;0.67;;
64887;SDS011;51386;53.082;8.816;2023-10-31T08:26:13;0.80;;;0.67;;
64887;SDS011;51386;53.082;8.816;2023-10-31T08:28:42;0.50;;;0.50;;
64887;SDS011;51386;53.082;8.816;2023-10-31T08:31:10;1.47;;;0.70;;
64887;SDS011;51386;53.082;8.816;2023-10-31T08:33:39;0.43;;;0.43;;
64887;SDS011;51386;53.082;8.816;2023-10-31T08:36:07;0.50;;;0.50;;
64887;SDS011;51386;53.082;8.816;2023-10-31T08:38:36;1.17;;;0.63;;
64887;SDS011;51386;53.082;8.816;2023-10-31T08:41:04;0.60;;;0.60;;
64887;SDS011;51386;53.082;8.816;2023-10-31T08:43:33;1.20;;;0.70;;
64887;SDS011;51386;53.082;8.816;2023-10-31T08:46:02;1.63;;;0.83;;
64887;SDS011;51386;53.082;8.816;2023-10-31T08:48:30;0.50;;;0.40;;
64887;SDS011;51386;53.082;8.816;2023-10-31T08:50:59;1.37;;;1.00;;
64887;SDS011;51386;53.082;8.816;2023-10-31T08:53:27;0.80;;;0.80;;
64887;SDS011;51386;53.082;8.816;2023-10-31T08:55:55;0.60;;;0.50;;
64887;SDS011;51386;53.082;8.816;2023-10-31T08:58:24;0.40;;;0.40;;
64887;SDS011;51386;53.082;8.816;2023-10-31T09:00:52;0.73;;;0.60;;
64887;SDS011;51386;53.082;8.816;2023-10-31T09:03:21;0.87;;;0.70;;
64887;SDS011;51386;53.082;8.816;2023-10-31T09:05:49;2.70;;;0.90;;
64887;SDS011;51386;53.082;8.816;2023-10-31T09:08:17;0.93;;;0.70;;
64887;SDS011;51386;53.082;8.816;2023-10-31T09:10:46;1.00;;;0.60;;
64887;SDS011;51386;53.082;8.816;2023-10-31T09:13:15;1.83;;;0.70;;
64887;SDS011;51386;53.082;8.816;2023-10-31T09:15:43;0.80;;;0.67;;
64887;SDS011;51386;53.082;8.816;2023-10-31T09:18:13;1.33;;;0.80;;
64887;SDS011;51386;53.082;8.816;2023-10-31T09:20:42;0.93;;;0.83;;
64887;SDS011;51386;53.082;8.816;2023-10-31T09:23:10;1.50;;;0.70;;
64887;SDS011;51386;53.082;8.816;2023-10-31T09:25:38;0.90;;;0.77;;
64887;SDS011;51386;53.082;8.816;2023-10-31T09:28:07;0.80;;;0.80;;
64887;SDS011;51386;53.082;8.816;2023-10-31T09:30:35;0.80;;;0.60;;
64887;SDS011;51386;53.082;8.816;2023-10-31T09:33:04;3.57;;;0.90;;
64887;SDS011;51386;53.082;8.816;2023-10-31T09:35:32;1.20;;;0.80;;
64887;SDS011;51386;53.082;8.816;2023-10-31T09:38:00;1.47;;;0.90;;
64887;SDS011;51386;53.082;8.816;2023-10-31T09:40:29;1.10;;;0.97;;
64887;SDS011;51386;53.082;8.816;2023-10-31T09:42:57;1.90;;;1.03;;
64887;SDS011;51386;53.082;8.816;2023-10-31T09:45:26;1.20;;;0.87;;
64887;SDS011;51386;53.082;8.816;2023-10-31T09:47:54;2.07;;;1.20;;
64887;SDS011;51386;53.082;8.816;2023-10-31T09:50:25;1.10;;;1.00;;
64887;SDS011;51386;53.082;8.816;2023-10-31T09:52:54;1.90;;;0.90;;
64887;SDS011;51386;53.082;8.816;2023-10-31T09:55:24;2.13;;;1.40;;
64887;SDS011;51386;53.082;8.816;2023-10-31T09:57:53;1.20;;;1.10;;
64887;SDS011;51386;53.082;8.816;2023-10-31T10:00:22;1.13;;;0.83;;
64887;SDS011;51386;53.082;8.816;2023-10-31T10:02:51;2.53;;;1.20;;
64887;SDS011;51386;53.082;8.816;2023-10-31T10:05:20;2.43;;;1.20;;
64887;SDS011;51386;53.082;8.816;2023-10-31T10:07:50;2.30;;;1.50;;
64887;SDS011;51386;53.082;8.816;2023-10-31T10:10:24;1.50;;;1.40;;
64887;SDS011;51386;53.082;8.816;2023-10-31T10:12:52;2.73;;;1.50;;
64887;SDS011;51386;53.082;8.816;2023-10-31T10:15:21;1.73;;;1.50;;
64887;SDS011;51386;53.082;8.816;2023-10-31T10:17:52;1.60;;;1.50;;
64887;SDS011;51386;53.082;8.816;2023-10-31T10:20:21;1.93;;;1.43;;
64887;SDS011;51386;53.082;8.816;2023-10-31T10:22:49;3.47;;;1.83;;
64887;SDS011;51386;53.082;8.816;2023-10-31T10:25:18;3.00;;;2.13;;
64887;SDS011;51386;53.082;8.816;2023-10-31T10:27:47;1.90;;;1.80;;
64887;SDS011;51386;53.082;8.816;2023-10-31T10:30:15;2.37;;;1.60;;
64887;SDS011;51386;53.082;8.816;2023-10-31T10:32:44;2.73;;;2.20;;
64887;SDS011;51386;53.082;8.816;2023-10-31T10:35:12;2.00;;;1.40;;
64887;SDS011;51386;53.082;8.816;2023-10-31T10:37:41;1.60;;;1.50;;
64887;SDS011;51386;53.082;8.816;2023-10-31T10:40:14;1.73;;;1.50;;
64887;SDS011;51386;53.082;8.816;2023-10-31T10:42:44;3.50;;;1.93;;
64887;SDS011;51386;53.082;8.816;2023-10-31T10:45:15;2.10;;;1.90;;
64887;SDS011;51386;53.082;8.816;2023-10-31T10:47:47;3.70;;;1.90;;
64887;SDS011;51386;53.082;8.816;2023-10-31T10:50:18;1.87;;;1.50;;
64887;SDS011;51386;53.082;8.816;2023-10-31T10:52:49;2.77;;;1.70;;
64887;SDS011;51386;53.082;8.816;2023-10-31T10:55:59;3.87;;;1.40;;
64887;SDS011;51386;53.082;8.816;2023-10-31T10:58:38;1.73;;;1.30;;
64887;SDS011;51386;53.082;8.816;2023-10-31T11:01:30;2.57;;;1.73;;
64887;SDS011;51386;53.082;8.816;2023-10-31T11:03:59;1.63;;;1.50;;
64887;SDS011;51386;53.082;8.816;2023-10-31T11:06:29;4.17;;;1.60;;
64887;SDS011;51386;53.082;8.816;2023-10-31T11:08:58;2.03;;;1.43;;
64887;SDS011;51386;53.082;8.816;2023-10-31T11:11:28;1.47;;;1.30;;
64887;SDS011;51386;53.082;8.816;2023-10-31T11:13:57;3.17;;;1.60;;
64887;SDS011;51386;53.082;8.816;2023-10-31T11:16:30;2.00;;;1.80;;
64887;SDS011;51386;53.082;8.816;2023-10-31T11:19:12;5.10;;;1.53;;
64887;SDS011;51386;53.082;8.816;2023-10-31T11:22:00;1.60;;;1.23;;
64887;SDS011;51386;53.082;8.816;2023-10-31T11:24:34;1.40;;;1.30;;
64887;SDS011;51386;53.082;8.816;2023-10-31T11:27:06;3.47;;;1.77;;
64887;SDS011;51386;53.082;8.816;2023-10-31T11:29:36;3.37;;;1.60;;
64887;SDS011;51386;53.082;8.816;2023-10-31T11:32:08;2.70;;;1.47;;
64887;SDS011;51386;53.082;8.816;2023-10-31T11:34:39;3.03;;;1.73;;
64887;SDS011;51386;53.082;8.816;2023-10-31T11:37:26;4.30;;;1.97;;
64887;SDS011;51386;53.082;8.816;2023-10-31T11:42:42;2.07;;;1.60;;
64887;SDS011;51386;53.082;8.816;2023-10-31T11:45:23;2.27;;;1.90;;
64887;SDS011;51386;53.082;8.816;2023-10-31T11:48:14;2.87;;;1.60;;
64887;SDS011;51386;53.082;8.816;2023-10-31T11:50:43;2.93;;;1.50;;
64887;SDS011;51386;53.082;8.816;2023-10-31T11:53:12;5.63;;;2.00;;
64887;SDS011;51386;53.082;8.816;2023-10-31T11:55:45;4.43;;;1.90;;
64887;SDS011;51386;53.082;8.816;2023-10-31T11:58:24;3.07;;;1.63;;
64887;SDS011;51386;53.082;8.816;2023-10-31T12:01:02;3.00;;;1.73;;
64887;SDS011;51386;53.082;8.816;2023-10-31T12:03:37;2.87;;;1.40;;
64887;SDS011;51386;53.082;8.816;2023-10-31T12:06:15;1.93;;;1.77;;
64887;SDS011;51386;53.082;8.816;2023-10-31T12:08:43;2.07;;;1.50;;
64887;SDS011;51386;53.082;8.816;2023-10-31T12:13:52;4.47;;;2.47;;
64887;SDS011;51386;53.082;8.816;2023-10-31T12:16:30;2.30;;;2.10;;
64887;SDS011;51386;53.082;8.816;2023-10-31T12:19:01;3.53;;;1.70;;
64887;SDS011;51386;53.082;8.816;2023-10-31T12:21:39;2.67;;;2.10;;
64887;SDS011;51386;53.082;8.816;2023-10-31T12:24:12;2.57;;;1.63;;
64887;SDS011;51386;53.082;8.816;2023-10-31T12:26:45;3.23;;;1.73;;
64887;SDS011;51386;53.082;8.816;2023-10-31T12:29:18;4.33;;;1.90;;
64887;SDS011;51386;53.082;8.816;2023-10-31T12:34:22;3.90;;;1.73;;
64887;SDS011;51386;53.082;8.816;2023-10-31T12:36:53;2.43;;;1.90;;
64887;SDS011;51386;53.082;8.816;2023-10-31T12:39:24;4.73;;;1.77;;
64887;SDS011;51386;53.082;8.816;2023-10-31T12:41:54;6.63;;;1.83;;
64887;SDS011;51386;53.082;8.816;2023-10-31T12:44:25;1.20;;;1.00;;
64887;SDS011;51386;53.082;8.816;2023-10-31T12:46:56;4.53;;;1.43;;
64887;SDS011;51386;53.082;8.816;2023-10-31T12:49:24;1.77;;;1.27;;
64887;SDS011;51386;53.082;8.816;2023-10-31T12:54:35;0.93;;;0.80;;
64887;SDS011;51386;53.082;8.816;2023-10-31T12:57:06;2.17;;;1.37;;
64887;SDS011;51386;53.082;8.816;2023-10-31T12:59:37;2.90;;;2.30;;
64887;SDS011;51386;53.082;8.816;2023-10-31T13:02:06;3.43;;;1.30;;
64887;SDS011;51386;53.082;8.816;2023-10-31T13:04:37;3.33;;;2.00;;
64887;SDS011;51386;53.082;8.816;2023-10-31T13:07:06;4.40;;;1.57;;
64887;SDS011;51386;53.082;8.816;2023-10-31T13:09:36;2.80;;;1.90;;
64887;SDS011;51386;53.082;8.816;2023-10-31T13:12:07;2.90;;;1.30;;
64887;SDS011;51386;53.082;8.816;2023-10-31T13:14:38;1.50;;;1.40;;
64887;SDS011;51386;53.082;8.816;2023-10-31T13:17:07;1.87;;;1.67;;
64887;SDS011;51386;53.082;8.816;2023-10-31T13:19:35;2.27;;;1.40;;
64887;SDS011;51386;53.082;8.816;2023-10-31T13:22:04;4.13;;;2.17;;
64887;SDS011;51386;53.082;8.816;2023-10-31T13:24:32;2.13;;;1.00;;
64887;SDS011;51386;53.082;8.816;2023-10-31T13:27:01;2.63;;;1.30;;
64887;SDS011;51386;53.082;8.816;2023-10-31T13:29:31;2.67;;;1.10;;
64887;SDS011;51386;53.082;8.816;2023-10-31T13:32:00;1.40;;;1.30;;
64887;SDS011;51386;53.082;8.816;2023-10-31T13:34:29;1.93;;;1.60;;
64887;SDS011;51386;53.082;8.816;2023-10-31T13:37:00;1.17;;;1.07;;
64887;SDS011;51386;53.082;8.816;2023-10-31T13:39:30;1.33;;;1.10;;
64887;SDS011;51386;53.082;8.816;2023-10-31T13:41:58;1.90;;;1.33;;
64887;SDS011;51386;53.082;8.816;2023-10-31T13:44:26;3.87;;;1.77;;
64887;SDS011;51386;53.082;8.816;2023-10-31T13:46:55;2.63;;;1.40;;
64887;SDS011;51386;53.082;8.816;2023-10-31T13:49:23;4.17;;;3.47;;
64887;SDS011;51386;53.082;8.816;2023-10-31T13:51:52;2.90;;;2.00;;
64887;SDS011;51386;53.082;8.816;2023-10-31T13:54:20;1.67;;;1.40;;
64887;SDS011;51386;53.082;8.816;2023-10-31T13:56:49;6.47;;;4.77;;
64887;SDS011;51386;53.082;8.816;2023-10-31T13:59:17;2.40;;;2.10;;
64887;SDS011;51386;53.082;8.816;2023-10-31T14:01:46;1.33;;;1.23;;
64887;SDS011;51386;53.082;8.816;2023-10-31T14:04:15;2.70;;;1.10;;
64887;SDS011;51386;53.082;8.816;2023-10-31T14:06:45;3.63;;;2.20;;
64887;SDS011;51386;53.082;8.816;2023-10-31T14:09:14;2.10;;;1.70;;
64887;SDS011;51386;53.082;8.816;2023-10-31T14:11:43;3.07;;;2.23;;
64887;SDS011;51386;53.082;8.816;2023-10-31T14:14:11;3.03;;;1.90;;
64887;SDS011;51386;53.082;8.816;2023-10-31T14:16:41;1.40;;;1.30;;
64887;SDS011;51386;53.082;8.816;2023-10-31T14:19:14;2.40;;;1.40;;
64887;SDS011;51386;53.082;8.816;2023-10-31T14:21:43;2.00;;;1.30;;
64887;SDS011;51386;53.082;8.816;2023-10-31T14:24:13;2.47;;;1.33;;
64887;SDS011;51386;53.082;8.816;2023-10-31T14:26:42;2.67;;;1.30;;
64887;SDS011;51386;53.082;8.816;2023-10-31T14:29:10;2.00;;;1.40;;
64887;SDS011;51386;53.082;8.816;2023-10-31T14:31:40;3.63;;;3.00;;
64887;SDS011;51386;53.082;8.816;2023-10-31T14:34:09;6.43;;;4.07;;
64887;SDS011;51386;53.082;8.816;2023-10-31T14:36:38;4.90;;;3.23;;
64887;SDS011;51386;53.082;8.816;2023-10-31T14:39:08;4.30;;;2.83;;
64887;SDS011;51386;53.082;8.816;2023-10-31T14:41:37;5.00;;;1.90;;
64887;SDS011;51386;53.082;8.816;2023-10-31T14:44:06;3.77;;;1.70;;
64887;SDS011;51386;53.082;8.816;2023-10-31T14:46:36;7.87;;;2.07;;
64887;SDS011;51386;53.082;8.816;2023-10-31T14:49:04;3.40;;;2.37;;
64887;SDS011;51386;53.082;8.816;2023-10-31T14:51:33;6.70;;;2.60;;
64887;SDS011;51386;53.082;8.816;2023-10-31T14:54:01;4.50;;;2.33;;
64887;SDS011;51386;53.082;8.816;2023-10-31T14:56:30;7.17;;;3.40;;
64887;SDS011;51386;53.082;8.816;2023-10-31T14:58:59;7.70;;;4.93;;
64887;SDS011;51386;53.082;8.816;2023-10-31T15:01:29;6.10;;;4.20;;
64887;SDS011;51386;53.082;8.816;2023-10-31T15:03:58;4.60;;;4.10;;
64887;SDS011;51386;53.082;8.816;2023-10-31T15:06:26;3.73;;;2.07;;